sensor_id;sensor_type;location;lat;lon;timestamp;temperature;humidity
15926;DHT22;8062;53.882;10.642;2023-04-15T00:00:06;7.20;99.90
15926;DHT22;8062;53.882;10.642;2023-04-15T00:01:32;7.20;99.90
15926;DHT22;8062;53.882;10.642;2023-04-15T00:02:55;7.20;99.90
15926;DHT22;8062;53.882;10.642;2023-04-15T00:04:15;7.20;99.90
15926;DHT22;8062;53.882;10.642;2023-04-15T00:05:34;7.20;99.90
15926;DHT22;8062;53.882;10.642;2023-04-15T00:06:54;7.20;99.90
15926;DHT22;8062;53.882;10.642;2023-04-15T00:08:14;7.20;99.90
15926;DHT22;8062;53.882;10.642;2023-04-15T00:09:33;7.20;99.90
15926;DHT22;8062;53.882;10.642;2023-04-15T00:10:53;7.20;99.90
15926;DHT22;8062;53.882;10.642;2023-04-15T00:12:12;7.20;99.90
15926;DHT22;8062;53.882;10.642;2023-04-15T00:13:32;7.20;99.90
15926;DHT22;8062;53.882;10.642;2023-04-15T00:14:52;7.20;99.90
15926;DHT22;8062;53.882;10.642;2023-04-15T00:16:13;7.20;99.90
15926;DHT22;8062;53.882;10.642;2023-04-15T00:17:32;7.20;99.90
15926;DHT22;8062;53.882;10.642;2023-04-15T00:18:52;7.30;99.90
15926;DHT22;8062;53.882;10.642;2023-04-15T00:20:12;7.30;99.90
15926;DHT22;8062;53.882;10.642;2023-04-15T00:21:31;7.30;99.90
15926;DHT22;8062;53.882;10.642;2023-04-15T00:22:51;7.30;99.90
15926;DHT22;8062;53.882;10.642;2023-04-15T00:24:11;7.30;99.90
15926;DHT22;8062;53.882;10.642;2023-04-15T00:25:31;7.30;99.90
15926;DHT22;8062;53.882;10.642;2023-04-15T00:26:51;7.20;99.90
15926;DHT22;8062;53.882;10.642;2023-04-15T00:28:11;7.20;99.90
15926;DHT22;8062;53.882;10.642;2023-04-15T00:29:31;7.20;99.90
15926;DHT22;8062;53.882;10.642;2023-04-15T00:30:50;7.20;99.90
15926;DHT22;8062;53.882;10.642;2023-04-15T00:32:09;7.20;99.90
15926;DHT22;8062;53.882;10.642;2023-04-15T00:33:29;7.20;99.90
15926;DHT22;8062;53.882;10.642;2023-04-15T00:34:49;7.20;99.90
15926;DHT22;8062;53.882;10.642;2023-04-15T00:36:09;7.20;99.90
15926;DHT22;8062;53.882;10.642;2023-04-15T00:37:30;7.20;99.90
15926;DHT22;8062;53.882;10.642;2023-04-15T00:38:50;7.30;99.90
15926;DHT22;8062;53.882;10.642;2023-04-15T00:40:11;7.20;99.90
15926;DHT22;8062;53.882;10.642;2023-04-15T00:41:31;7.30;99.90
15926;DHT22;8062;53.882;10.642;2023-04-15T00:42:52;7.30;99.90
15926;DHT22;8062;53.882;10.642;2023-04-15T00:44:12;7.30;99.90
15926;DHT22;8062;53.882;10.642;2023-04-15T00:45:32;7.30;99.90
15926;DHT22;8062;53.882;10.642;2023-04-15T00:46:53;7.30;99.90
15926;DHT22;8062;53.882;10.642;2023-04-15T00:48:12;7.20;99.90
15926;DHT22;8062;53.882;10.642;2023-04-15T00:49:32;7.20;99.90
15926;DHT22;8062;53.882;10.642;2023-04-15T00:50:52;7.30;99.90
15926;DHT22;8062;53.882;10.642;2023-04-15T00:52:12;7.30;99.90
15926;DHT22;8062;53.882;10.642;2023-04-15T00:53:31;7.20;99.90
15926;DHT22;8062;53.882;10.642;2023-04-15T00:54:51;7.30;99.90
15926;DHT22;8062;53.882;10.642;2023-04-15T00:56:12;7.30;99.90
15926;DHT22;8062;53.882;10.642;2023-04-15T00:57:32;7.30;99.90
15926;DHT22;8062;53.882;10.642;2023-04-15T00:58:52;7.30;99.90
15926;DHT22;8062;53.882;10.642;2023-04-15T01:00:12;7.30;99.90
15926;DHT22;8062;53.882;10.642;2023-04-15T01:01:36;7.30;99.90
15926;DHT22;8062;53.882;10.642;2023-04-15T01:02:55;7.40;99.90
15926;DHT22;8062;53.882;10.642;2023-04-15T01:04:16;7.40;99.90
15926;DHT22;8062;53.882;10.642;2023-04-15T01:05:35;7.40;99.90
15926;DHT22;8062;53.882;10.642;2023-04-15T01:06:55;7.40;99.90
15926;DHT22;8062;53.882;10.642;2023-04-15T01:08:14;7.40;99.90
15926;DHT22;8062;53.882;10.642;2023-04-15T01:09:34;7.40;99.90
15926;DHT22;8062;53.882;10.642;2023-04-15T01:10:56;7.40;99.90
15926;DHT22;8062;53.882;10.642;2023-04-15T01:12:17;7.40;99.90
15926;DHT22;8062;53.882;10.642;2023-04-15T01:13:37;7.40;99.90
15926;DHT22;8062;53.882;10.642;2023-04-15T01:14:58;7.40;99.90
15926;DHT22;8062;53.882;10.642;2023-04-15T01:16:18;7.50;99.90
15926;DHT22;8062;53.882;10.642;2023-04-15T01:17:38;7.40;99.90
15926;DHT22;8062;53.882;10.642;2023-04-15T01:19:00;7.50;99.90
15926;DHT22;8062;53.882;10.642;2023-04-15T01:20:20;7.40;99.90
15926;DHT22;8062;53.882;10.642;2023-04-15T01:21:40;7.50;99.90
15926;DHT22;8062;53.882;10.642;2023-04-15T01:23:00;7.50;99.90
15926;DHT22;8062;53.882;10.642;2023-04-15T01:24:20;7.50;99.90
15926;DHT22;8062;53.882;10.642;2023-04-15T01:25:40;7.50;99.90
15926;DHT22;8062;53.882;10.642;2023-04-15T01:27:00;7.50;99.90
15926;DHT22;8062;53.882;10.642;2023-04-15T01:28:22;7.50;99.90
15926;DHT22;8062;53.882;10.642;2023-04-15T01:29:41;7.50;99.90
15926;DHT22;8062;53.882;10.642;2023-04-15T01:31:06;7.50;99.90
15926;DHT22;8062;53.882;10.642;2023-04-15T01:32:29;7.50;99.90
15926;DHT22;8062;53.882;10.642;2023-04-15T01:33:49;7.50;99.90
15926;DHT22;8062;53.882;10.642;2023-04-15T01:35:09;7.50;99.90
15926;DHT22;8062;53.882;10.642;2023-04-15T01:36:28;7.50;99.90
15926;DHT22;8062;53.882;10.642;2023-04-15T01:37:48;7.50;99.90
15926;DHT22;8062;53.882;10.642;2023-04-15T01:39:09;7.50;99.90
15926;DHT22;8062;53.882;10.642;2023-04-15T01:40:29;7.50;99.90
15926;DHT22;8062;53.882;10.642;2023-04-15T01:41:51;7.50;99.90
15926;DHT22;8062;53.882;10.642;2023-04-15T01:43:10;7.50;99.90
15926;DHT22;8062;53.882;10.642;2023-04-15T01:44:30;7.50;99.90
15926;DHT22;8062;53.882;10.642;2023-04-15T01:45:50;7.50;99.90
15926;DHT22;8062;53.882;10.642;2023-04-15T01:47:09;7.50;99.90
15926;DHT22;8062;53.882;10.642;2023-04-15T01:48:30;7.50;99.90
15926;DHT22;8062;53.882;10.642;2023-04-15T01:49:50;7.50;99.90
15926;DHT22;8062;53.882;10.642;2023-04-15T01:51:10;7.50;99.90
15926;DHT22;8062;53.882;10.642;2023-04-15T01:52:30;7.50;99.90
15926;DHT22;8062;53.882;10.642;2023-04-15T01:53:50;7.50;99.90
15926;DHT22;8062;53.882;10.642;2023-04-15T01:55:11;7.50;99.90
15926;DHT22;8062;53.882;10.642;2023-04-15T01:56:31;7.50;99.90
15926;DHT22;8062;53.882;10.642;2023-04-15T01:57:51;7.50;99.90
15926;DHT22;8062;53.882;10.642;2023-04-15T01:59:11;7.50;99.90
15926;DHT22;8062;53.882;10.642;2023-04-15T02:00:31;7.50;99.90
15926;DHT22;8062;53.882;10.642;2023-04-15T02:01:51;7.40;99.90
15926;DHT22;8062;53.882;10.642;2023-04-15T02:03:12;7.40;99.90
15926;DHT22;8062;53.882;10.642;2023-04-15T02:04:32;7.40;99.90
15926;DHT22;8062;53.882;10.642;2023-04-15T02:05:53;7.40;99.90
15926;DHT22;8062;53.882;10.642;2023-04-15T02:07:13;7.40;99.90
15926;DHT22;8062;53.882;10.642;2023-04-15T02:08:33;7.30;99.90
15926;DHT22;8062;53.882;10.642;2023-04-15T02:09:53;7.30;99.90
15926;DHT22;8062;53.882;10.642;2023-04-15T02:11:12;7.30;99.90
15926;DHT22;8062;53.882;10.642;2023-04-15T02:12:32;7.20;99.90
15926;DHT22;8062;53.882;10.642;2023-04-15T02:13:52;7.20;99.90
15926;DHT22;8062;53.882;10.642;2023-04-15T02:15:12;7.20;99.90
15926;DHT22;8062;53.882;10.642;2023-04-15T02:16:32;7.20;99.90
15926;DHT22;8062;53.882;10.642;2023-04-15T02:17:52;7.20;99.90
15926;DHT22;8062;53.882;10.642;2023-04-15T02:19:13;7.20;99.90
15926;DHT22;8062;53.882;10.642;2023-04-15T02:20:33;7.20;99.90
15926;DHT22;8062;53.882;10.642;2023-04-15T02:21:54;7.20;99.90
15926;DHT22;8062;53.882;10.642;2023-04-15T02:23:14;7.10;99.90
15926;DHT22;8062;53.882;10.642;2023-04-15T02:24:36;7.10;99.90
15926;DHT22;8062;53.882;10.642;2023-04-15T02:25:56;7.20;99.90
15926;DHT22;8062;53.882;10.642;2023-04-15T02:27:16;7.20;99.90
15926;DHT22;8062;53.882;10.642;2023-04-15T02:28:36;7.10;99.90
15926;DHT22;8062;53.882;10.642;2023-04-15T02:29:56;7.20;99.90
15926;DHT22;8062;53.882;10.642;2023-04-15T02:31:16;7.10;99.90
15926;DHT22;8062;53.882;10.642;2023-04-15T02:32:35;7.10;99.90
15926;DHT22;8062;53.882;10.642;2023-04-15T02:33:56;7.10;99.90
15926;DHT22;8062;53.882;10.642;2023-04-15T02:35:15;7.10;99.90
15926;DHT22;8062;53.882;10.642;2023-04-15T02:36:37;7.10;99.90
15926;DHT22;8062;53.882;10.642;2023-04-15T02:37:59;7.10;99.90
15926;DHT22;8062;53.882;10.642;2023-04-15T02:39:19;7.20;99.90
15926;DHT22;8062;53.882;10.642;2023-04-15T02:40:38;7.20;99.90
15926;DHT22;8062;53.882;10.642;2023-04-15T02:41:59;7.20;99.90
15926;DHT22;8062;53.882;10.642;2023-04-15T02:43:19;7.20;99.90
15926;DHT22;8062;53.882;10.642;2023-04-15T02:44:39;7.10;99.90
15926;DHT22;8062;53.882;10.642;2023-04-15T02:45:58;7.20;99.90
15926;DHT22;8062;53.882;10.642;2023-04-15T02:47:19;7.20;99.90
15926;DHT22;8062;53.882;10.642;2023-04-15T02:48:38;7.20;99.90
15926;DHT22;8062;53.882;10.642;2023-04-15T02:49:58;7.20;99.90
15926;DHT22;8062;53.882;10.642;2023-04-15T02:51:20;7.20;99.90
15926;DHT22;8062;53.882;10.642;2023-04-15T02:52:41;7.20;99.90
15926;DHT22;8062;53.882;10.642;2023-04-15T02:54:01;7.20;99.90
15926;DHT22;8062;53.882;10.642;2023-04-15T02:55:21;7.20;99.90
15926;DHT22;8062;53.882;10.642;2023-04-15T02:56:41;7.20;99.90
15926;DHT22;8062;53.882;10.642;2023-04-15T02:58:00;7.30;99.90
15926;DHT22;8062;53.882;10.642;2023-04-15T02:59:20;7.30;99.90
15926;DHT22;8062;53.882;10.642;2023-04-15T03:00:40;7.30;99.90
15926;DHT22;8062;53.882;10.642;2023-04-15T03:01:59;7.30;99.90
15926;DHT22;8062;53.882;10.642;2023-04-15T03:03:19;7.30;99.90
15926;DHT22;8062;53.882;10.642;2023-04-15T03:04:39;7.40;99.90
15926;DHT22;8062;53.882;10.642;2023-04-15T03:05:59;7.40;99.90
15926;DHT22;8062;53.882;10.642;2023-04-15T03:07:19;7.40;99.90
15926;DHT22;8062;53.882;10.642;2023-04-15T03:08:38;7.40;99.90
15926;DHT22;8062;53.882;10.642;2023-04-15T03:09:58;7.40;99.90
15926;DHT22;8062;53.882;10.642;2023-04-15T03:11:18;7.40;99.90
15926;DHT22;8062;53.882;10.642;2023-04-15T03:12:38;7.40;99.90
15926;DHT22;8062;53.882;10.642;2023-04-15T03:13:59;7.40;99.90
15926;DHT22;8062;53.882;10.642;2023-04-15T03:15:24;7.40;99.90
15926;DHT22;8062;53.882;10.642;2023-04-15T03:16:45;7.40;99.90
15926;DHT22;8062;53.882;10.642;2023-04-15T03:18:06;7.40;99.90
15926;DHT22;8062;53.882;10.642;2023-04-15T03:19:27;7.40;99.90
15926;DHT22;8062;53.882;10.642;2023-04-15T03:20:46;7.40;99.90
15926;DHT22;8062;53.882;10.642;2023-04-15T03:22:06;7.40;99.90
15926;DHT22;8062;53.882;10.642;2023-04-15T03:23:25;7.40;99.90
15926;DHT22;8062;53.882;10.642;2023-04-15T03:24:45;7.40;99.90
15926;DHT22;8062;53.882;10.642;2023-04-15T03:26:05;7.50;99.90
15926;DHT22;8062;53.882;10.642;2023-04-15T03:27:26;7.50;99.90
15926;DHT22;8062;53.882;10.642;2023-04-15T03:28:48;7.50;99.90
15926;DHT22;8062;53.882;10.642;2023-04-15T03:30:10;7.50;99.90
15926;DHT22;8062;53.882;10.642;2023-04-15T03:31:31;7.50;99.90
15926;DHT22;8062;53.882;10.642;2023-04-15T03:32:51;7.50;99.90
15926;DHT22;8062;53.882;10.642;2023-04-15T03:34:10;7.50;99.90
15926;DHT22;8062;53.882;10.642;2023-04-15T03:35:30;7.50;99.90
15926;DHT22;8062;53.882;10.642;2023-04-15T03:36:50;7.60;99.90
15926;DHT22;8062;53.882;10.642;2023-04-15T03:38:09;7.60;99.90
15926;DHT22;8062;53.882;10.642;2023-04-15T03:39:28;7.60;99.90
15926;DHT22;8062;53.882;10.642;2023-04-15T03:40:48;7.60;99.90
15926;DHT22;8062;53.882;10.642;2023-04-15T03:42:07;7.60;99.90
15926;DHT22;8062;53.882;10.642;2023-04-15T03:43:27;7.50;99.90
15926;DHT22;8062;53.882;10.642;2023-04-15T03:44:46;7.60;99.90
15926;DHT22;8062;53.882;10.642;2023-04-15T03:46:06;7.60;99.90
15926;DHT22;8062;53.882;10.642;2023-04-15T03:47:26;7.60;99.90
15926;DHT22;8062;53.882;10.642;2023-04-15T03:48:46;7.60;99.90
15926;DHT22;8062;53.882;10.642;2023-04-15T03:50:06;7.60;99.90
15926;DHT22;8062;53.882;10.642;2023-04-15T03:51:26;7.60;99.90
15926;DHT22;8062;53.882;10.642;2023-04-15T03:52:46;7.60;99.90
15926;DHT22;8062;53.882;10.642;2023-04-15T03:54:06;7.60;99.90
15926;DHT22;8062;53.882;10.642;2023-04-15T03:55:25;7.60;99.90
15926;DHT22;8062;53.882;10.642;2023-04-15T03:56:45;7.60;99.90
15926;DHT22;8062;53.882;10.642;2023-04-15T03:58:05;7.60;99.90
15926;DHT22;8062;53.882;10.642;2023-04-15T03:59:25;7.60;99.90
15926;DHT22;8062;53.882;10.642;2023-04-15T04:00:44;7.60;99.90
15926;DHT22;8062;53.882;10.642;2023-04-15T04:02:04;7.60;99.90
15926;DHT22;8062;53.882;10.642;2023-04-15T04:03:23;7.60;99.90
15926;DHT22;8062;53.882;10.642;2023-04-15T04:04:43;7.60;99.90
15926;DHT22;8062;53.882;10.642;2023-04-15T04:06:03;7.60;99.90
15926;DHT22;8062;53.882;10.642;2023-04-15T04:07:23;7.60;99.90
15926;DHT22;8062;53.882;10.642;2023-04-15T04:08:43;7.50;99.90
15926;DHT22;8062;53.882;10.642;2023-04-15T04:10:03;7.50;99.90
15926;DHT22;8062;53.882;10.642;2023-04-15T04:11:22;7.50;99.90
15926;DHT22;8062;53.882;10.642;2023-04-15T04:12:42;7.50;99.90
15926;DHT22;8062;53.882;10.642;2023-04-15T04:14:02;7.50;99.90
15926;DHT22;8062;53.882;10.642;2023-04-15T04:15:21;7.50;99.90
15926;DHT22;8062;53.882;10.642;2023-04-15T04:16:41;7.50;99.90
15926;DHT22;8062;53.882;10.642;2023-04-15T04:18:00;7.50;99.90
15926;DHT22;8062;53.882;10.642;2023-04-15T04:19:20;7.50;99.90
15926;DHT22;8062;53.882;10.642;2023-04-15T04:20:39;7.50;99.90
15926;DHT22;8062;53.882;10.642;2023-04-15T04:21:59;7.50;99.90
15926;DHT22;8062;53.882;10.642;2023-04-15T04:23:19;7.50;99.90
15926;DHT22;8062;53.882;10.642;2023-04-15T04:24:39;7.50;99.90
15926;DHT22;8062;53.882;10.642;2023-04-15T04:25:58;7.50;99.90
15926;DHT22;8062;53.882;10.642;2023-04-15T04:27:18;7.50;99.90
15926;DHT22;8062;53.882;10.642;2023-04-15T04:28:37;7.50;99.90
15926;DHT22;8062;53.882;10.642;2023-04-15T04:29:58;7.50;99.90
15926;DHT22;8062;53.882;10.642;2023-04-15T04:31:18;7.50;99.90
15926;DHT22;8062;53.882;10.642;2023-04-15T04:32:37;7.50;99.90
15926;DHT22;8062;53.882;10.642;2023-04-15T04:33:57;7.40;99.90
15926;DHT22;8062;53.882;10.642;2023-04-15T04:35:17;7.40;99.90
15926;DHT22;8062;53.882;10.642;2023-04-15T04:36:36;7.40;99.90
15926;DHT22;8062;53.882;10.642;2023-04-15T04:37:56;7.40;99.90
15926;DHT22;8062;53.882;10.642;2023-04-15T04:39:16;7.40;99.90
15926;DHT22;8062;53.882;10.642;2023-04-15T04:40:36;7.40;99.90
15926;DHT22;8062;53.882;10.642;2023-04-15T04:41:55;7.40;99.90
15926;DHT22;8062;53.882;10.642;2023-04-15T04:43:15;7.40;99.90
15926;DHT22;8062;53.882;10.642;2023-04-15T04:44:35;7.40;99.90
15926;DHT22;8062;53.882;10.642;2023-04-15T04:45:54;7.40;99.90
15926;DHT22;8062;53.882;10.642;2023-04-15T04:47:14;7.40;99.90
15926;DHT22;8062;53.882;10.642;2023-04-15T04:48:33;7.40;99.90
15926;DHT22;8062;53.882;10.642;2023-04-15T04:49:53;7.40;99.90
15926;DHT22;8062;53.882;10.642;2023-04-15T04:51:12;7.40;99.90
15926;DHT22;8062;53.882;10.642;2023-04-15T04:52:32;7.50;99.90
15926;DHT22;8062;53.882;10.642;2023-04-15T04:53:52;7.50;99.90
15926;DHT22;8062;53.882;10.642;2023-04-15T04:55:11;7.40;99.90
15926;DHT22;8062;53.882;10.642;2023-04-15T04:56:31;7.40;99.90
15926;DHT22;8062;53.882;10.642;2023-04-15T04:57:52;7.40;99.90
15926;DHT22;8062;53.882;10.642;2023-04-15T04:59:11;7.50;99.90
15926;DHT22;8062;53.882;10.642;2023-04-15T05:00:31;7.50;99.90
15926;DHT22;8062;53.882;10.642;2023-04-15T05:01:51;7.50;99.90
15926;DHT22;8062;53.882;10.642;2023-04-15T05:03:11;7.50;99.90
15926;DHT22;8062;53.882;10.642;2023-04-15T05:04:30;7.40;99.90
15926;DHT22;8062;53.882;10.642;2023-04-15T05:05:50;7.50;99.90
15926;DHT22;8062;53.882;10.642;2023-04-15T05:07:10;7.40;99.90
15926;DHT22;8062;53.882;10.642;2023-04-15T05:08:29;7.50;99.90
15926;DHT22;8062;53.882;10.642;2023-04-15T05:09:49;7.50;99.90
15926;DHT22;8062;53.882;10.642;2023-04-15T05:11:08;7.50;99.90
15926;DHT22;8062;53.882;10.642;2023-04-15T05:12:28;7.50;99.90
15926;DHT22;8062;53.882;10.642;2023-04-15T05:13:47;7.50;99.90
15926;DHT22;8062;53.882;10.642;2023-04-15T05:15:07;7.50;99.90
15926;DHT22;8062;53.882;10.642;2023-04-15T05:16:27;7.50;99.90
15926;DHT22;8062;53.882;10.642;2023-04-15T05:17:46;7.50;99.90
15926;DHT22;8062;53.882;10.642;2023-04-15T05:19:06;7.50;99.90
15926;DHT22;8062;53.882;10.642;2023-04-15T05:20:26;7.50;99.90
15926;DHT22;8062;53.882;10.642;2023-04-15T05:21:45;7.50;99.90
15926;DHT22;8062;53.882;10.642;2023-04-15T05:23:05;7.50;99.90
15926;DHT22;8062;53.882;10.642;2023-04-15T05:24:24;7.60;99.90
15926;DHT22;8062;53.882;10.642;2023-04-15T05:25:44;7.60;99.90
15926;DHT22;8062;53.882;10.642;2023-04-15T05:27:04;7.60;99.90
15926;DHT22;8062;53.882;10.642;2023-04-15T05:28:24;7.60;99.90
15926;DHT22;8062;53.882;10.642;2023-04-15T05:29:44;7.60;99.90
15926;DHT22;8062;53.882;10.642;2023-04-15T05:31:03;7.60;99.90
15926;DHT22;8062;53.882;10.642;2023-04-15T05:32:23;7.60;99.90
15926;DHT22;8062;53.882;10.642;2023-04-15T05:33:42;7.60;99.90
15926;DHT22;8062;53.882;10.642;2023-04-15T05:35:02;7.60;99.90
15926;DHT22;8062;53.882;10.642;2023-04-15T05:36:21;7.50;99.90
15926;DHT22;8062;53.882;10.642;2023-04-15T05:37:41;7.60;99.90
15926;DHT22;8062;53.882;10.642;2023-04-15T05:39:01;7.50;99.90
15926;DHT22;8062;53.882;10.642;2023-04-15T05:40:20;7.50;99.90
15926;DHT22;8062;53.882;10.642;2023-04-15T05:41:40;7.50;99.90
15926;DHT22;8062;53.882;10.642;2023-04-15T05:43:00;7.60;99.90
15926;DHT22;8062;53.882;10.642;2023-04-15T05:44:19;7.60;99.90
15926;DHT22;8062;53.882;10.642;2023-04-15T05:45:39;7.60;99.90
15926;DHT22;8062;53.882;10.642;2023-04-15T05:46:59;7.60;99.90
15926;DHT22;8062;53.882;10.642;2023-04-15T05:48:19;7.60;99.90
15926;DHT22;8062;53.882;10.642;2023-04-15T05:49:38;7.70;99.90
15926;DHT22;8062;53.882;10.642;2023-04-15T05:50:58;7.70;99.90
15926;DHT22;8062;53.882;10.642;2023-04-15T05:52:18;7.60;99.90
15926;DHT22;8062;53.882;10.642;2023-04-15T05:53:37;7.60;99.90
15926;DHT22;8062;53.882;10.642;2023-04-15T05:54:57;7.60;99.90
15926;DHT22;8062;53.882;10.642;2023-04-15T05:56:16;7.70;99.90
15926;DHT22;8062;53.882;10.642;2023-04-15T05:57:36;7.60;99.90
15926;DHT22;8062;53.882;10.642;2023-04-15T05:58:55;7.60;99.90
15926;DHT22;8062;53.882;10.642;2023-04-15T06:00:15;7.70;99.90
15926;DHT22;8062;53.882;10.642;2023-04-15T06:01:34;7.70;99.90
15926;DHT22;8062;53.882;10.642;2023-04-15T06:02:55;7.70;99.90
15926;DHT22;8062;53.882;10.642;2023-04-15T06:04:16;7.60;99.90
15926;DHT22;8062;53.882;10.642;2023-04-15T06:05:35;7.60;99.90
15926;DHT22;8062;53.882;10.642;2023-04-15T06:06:55;7.60;99.90
15926;DHT22;8062;53.882;10.642;2023-04-15T06:08:15;7.60;99.90
15926;DHT22;8062;53.882;10.642;2023-04-15T06:09:34;7.60;99.90
15926;DHT22;8062;53.882;10.642;2023-04-15T06:10:54;7.60;99.90
15926;DHT22;8062;53.882;10.642;2023-04-15T06:12:14;7.60;99.90
15926;DHT22;8062;53.882;10.642;2023-04-15T06:13:34;7.60;99.90
15926;DHT22;8062;53.882;10.642;2023-04-15T06:14:53;7.60;99.90
15926;DHT22;8062;53.882;10.642;2023-04-15T06:16:13;7.70;99.90
15926;DHT22;8062;53.882;10.642;2023-04-15T06:17:32;7.70;99.90
15926;DHT22;8062;53.882;10.642;2023-04-15T06:18:52;7.70;99.90
15926;DHT22;8062;53.882;10.642;2023-04-15T06:20:11;7.60;99.90
15926;DHT22;8062;53.882;10.642;2023-04-15T06:21:31;7.60;99.90
15926;DHT22;8062;53.882;10.642;2023-04-15T06:22:51;7.70;99.90
15926;DHT22;8062;53.882;10.642;2023-04-15T06:24:11;7.60;99.90
15926;DHT22;8062;53.882;10.642;2023-04-15T06:25:31;7.70;99.90
15926;DHT22;8062;53.882;10.642;2023-04-15T06:26:50;7.70;99.90
15926;DHT22;8062;53.882;10.642;2023-04-15T06:28:10;7.70;99.90
15926;DHT22;8062;53.882;10.642;2023-04-15T06:29:29;7.60;99.90
15926;DHT22;8062;53.882;10.642;2023-04-15T06:30:49;7.60;99.90
15926;DHT22;8062;53.882;10.642;2023-04-15T06:32:09;7.60;99.90
15926;DHT22;8062;53.882;10.642;2023-04-15T06:33:30;7.60;99.90
15926;DHT22;8062;53.882;10.642;2023-04-15T06:34:50;7.60;99.90
15926;DHT22;8062;53.882;10.642;2023-04-15T06:36:10;7.60;99.90
15926;DHT22;8062;53.882;10.642;2023-04-15T06:37:29;7.70;99.90
15926;DHT22;8062;53.882;10.642;2023-04-15T06:38:49;7.70;99.90
15926;DHT22;8062;53.882;10.642;2023-04-15T06:40:09;7.70;99.90
15926;DHT22;8062;53.882;10.642;2023-04-15T06:41:29;7.70;99.90
15926;DHT22;8062;53.882;10.642;2023-04-15T06:42:48;7.70;99.90
15926;DHT22;8062;53.882;10.642;2023-04-15T06:44:08;7.70;99.90
15926;DHT22;8062;53.882;10.642;2023-04-15T06:45:28;7.70;99.90
15926;DHT22;8062;53.882;10.642;2023-04-15T06:46:47;7.70;99.90
15926;DHT22;8062;53.882;10.642;2023-04-15T06:48:07;7.80;99.90
15926;DHT22;8062;53.882;10.642;2023-04-15T06:49:26;7.80;99.90
15926;DHT22;8062;53.882;10.642;2023-04-15T06:50:46;7.80;99.90
15926;DHT22;8062;53.882;10.642;2023-04-15T06:52:06;7.70;99.90
15926;DHT22;8062;53.882;10.642;2023-04-15T06:53:26;7.80;99.90
15926;DHT22;8062;53.882;10.642;2023-04-15T06:54:46;7.70;99.90
15926;DHT22;8062;53.882;10.642;2023-04-15T06:56:07;7.80;99.90
15926;DHT22;8062;53.882;10.642;2023-04-15T06:57:27;7.80;99.90
15926;DHT22;8062;53.882;10.642;2023-04-15T06:58:47;7.80;99.90
15926;DHT22;8062;53.882;10.642;2023-04-15T07:00:06;7.80;99.90
15926;DHT22;8062;53.882;10.642;2023-04-15T07:01:27;7.80;99.90
15926;DHT22;8062;53.882;10.642;2023-04-15T07:02:46;7.80;99.90
15926;DHT22;8062;53.882;10.642;2023-04-15T07:04:06;7.80;99.90
15926;DHT22;8062;53.882;10.642;2023-04-15T07:05:26;7.80;99.90
15926;DHT22;8062;53.882;10.642;2023-04-15T07:06:46;7.80;99.90
15926;DHT22;8062;53.882;10.642;2023-04-15T07:08:05;7.80;99.90
15926;DHT22;8062;53.882;10.642;2023-04-15T07:09:26;7.80;99.90
15926;DHT22;8062;53.882;10.642;2023-04-15T07:10:46;7.80;99.90
15926;DHT22;8062;53.882;10.642;2023-04-15T07:12:05;7.80;99.90
15926;DHT22;8062;53.882;10.642;2023-04-15T07:13:25;7.80;99.90
15926;DHT22;8062;53.882;10.642;2023-04-15T07:14:44;7.90;99.90
15926;DHT22;8062;53.882;10.642;2023-04-15T07:16:04;7.80;99.90
15926;DHT22;8062;53.882;10.642;2023-04-15T07:17:24;7.80;99.90
15926;DHT22;8062;53.882;10.642;2023-04-15T07:18:43;7.90;99.90
15926;DHT22;8062;53.882;10.642;2023-04-15T07:20:03;7.90;99.90
15926;DHT22;8062;53.882;10.642;2023-04-15T07:21:25;7.80;99.90
15926;DHT22;8062;53.882;10.642;2023-04-15T07:22:45;7.80;99.90
15926;DHT22;8062;53.882;10.642;2023-04-15T07:24:05;7.80;99.90
15926;DHT22;8062;53.882;10.642;2023-04-15T07:25:25;7.80;99.90
15926;DHT22;8062;53.882;10.642;2023-04-15T07:26:45;7.80;99.90
15926;DHT22;8062;53.882;10.642;2023-04-15T07:28:05;7.80;99.90
15926;DHT22;8062;53.882;10.642;2023-04-15T07:29:25;7.80;99.90
15926;DHT22;8062;53.882;10.642;2023-04-15T07:30:45;7.80;99.90
15926;DHT22;8062;53.882;10.642;2023-04-15T07:32:05;7.80;99.90
15926;DHT22;8062;53.882;10.642;2023-04-15T07:33:24;7.80;99.90
15926;DHT22;8062;53.882;10.642;2023-04-15T07:34:44;7.80;99.90
15926;DHT22;8062;53.882;10.642;2023-04-15T07:36:04;7.90;99.90
15926;DHT22;8062;53.882;10.642;2023-04-15T07:37:24;7.90;99.90
15926;DHT22;8062;53.882;10.642;2023-04-15T07:38:43;7.90;99.90
15926;DHT22;8062;53.882;10.642;2023-04-15T07:40:03;7.90;99.90
15926;DHT22;8062;53.882;10.642;2023-04-15T07:41:24;7.90;99.90
15926;DHT22;8062;53.882;10.642;2023-04-15T07:42:44;8.00;99.90
15926;DHT22;8062;53.882;10.642;2023-04-15T07:44:04;8.00;99.90
15926;DHT22;8062;53.882;10.642;2023-04-15T07:45:23;8.00;99.90
15926;DHT22;8062;53.882;10.642;2023-04-15T07:46:43;8.10;99.90
15926;DHT22;8062;53.882;10.642;2023-04-15T07:48:02;8.10;99.90
15926;DHT22;8062;53.882;10.642;2023-04-15T07:49:22;8.10;99.90
15926;DHT22;8062;53.882;10.642;2023-04-15T07:50:42;8.20;99.90
15926;DHT22;8062;53.882;10.642;2023-04-15T07:52:01;8.20;99.90
15926;DHT22;8062;53.882;10.642;2023-04-15T07:53:20;8.20;99.90
15926;DHT22;8062;53.882;10.642;2023-04-15T07:54:40;8.20;99.90
15926;DHT22;8062;53.882;10.642;2023-04-15T07:55:59;8.30;99.90
15926;DHT22;8062;53.882;10.642;2023-04-15T07:57:19;8.20;99.90
15926;DHT22;8062;53.882;10.642;2023-04-15T07:58:39;8.20;99.90
15926;DHT22;8062;53.882;10.642;2023-04-15T07:59:59;8.10;99.90
15926;DHT22;8062;53.882;10.642;2023-04-15T08:01:19;8.10;99.90
15926;DHT22;8062;53.882;10.642;2023-04-15T08:02:39;8.10;99.90
15926;DHT22;8062;53.882;10.642;2023-04-15T08:03:59;8.10;99.90
15926;DHT22;8062;53.882;10.642;2023-04-15T08:05:19;8.20;99.90
15926;DHT22;8062;53.882;10.642;2023-04-15T08:06:38;8.20;99.90
15926;DHT22;8062;53.882;10.642;2023-04-15T08:07:58;8.20;99.90
15926;DHT22;8062;53.882;10.642;2023-04-15T08:09:17;8.20;99.90
15926;DHT22;8062;53.882;10.642;2023-04-15T08:10:37;8.20;99.90
15926;DHT22;8062;53.882;10.642;2023-04-15T08:11:57;8.20;99.90
15926;DHT22;8062;53.882;10.642;2023-04-15T08:13:17;8.20;99.90
15926;DHT22;8062;53.882;10.642;2023-04-15T08:14:37;8.30;99.90
15926;DHT22;8062;53.882;10.642;2023-04-15T08:17:37;8.40;99.90
15926;DHT22;8062;53.882;10.642;2023-04-15T08:18:57;8.40;99.90
15926;DHT22;8062;53.882;10.642;2023-04-15T08:20:17;8.40;99.90
15926;DHT22;8062;53.882;10.642;2023-04-15T08:21:37;8.40;99.90
15926;DHT22;8062;53.882;10.642;2023-04-15T08:22:57;8.40;99.90
15926;DHT22;8062;53.882;10.642;2023-04-15T08:24:16;8.50;99.90
15926;DHT22;8062;53.882;10.642;2023-04-15T08:25:36;8.60;99.90
15926;DHT22;8062;53.882;10.642;2023-04-15T08:26:55;8.60;99.90
15926;DHT22;8062;53.882;10.642;2023-04-15T08:28:15;8.60;99.90
15926;DHT22;8062;53.882;10.642;2023-04-15T08:29:35;8.60;99.90
15926;DHT22;8062;53.882;10.642;2023-04-15T08:30:54;8.60;99.90
15926;DHT22;8062;53.882;10.642;2023-04-15T08:32:14;8.70;99.90
15926;DHT22;8062;53.882;10.642;2023-04-15T08:33:34;8.70;99.90